createdAt,value
2019-03-05T00:01:59.636Z,9.80
2019-03-05T00:04:28.053Z,9.70
2019-03-05T00:06:56.944Z,9.70
2019-03-05T00:09:25.383Z,9.70
2019-03-05T00:11:53.906Z,9.70
2019-03-05T00:14:22.972Z,9.80
2019-03-05T00:16:51.436Z,9.80
2019-03-05T00:19:19.978Z,9.80
2019-03-05T00:21:48.508Z,9.80
2019-03-05T00:24:51.926Z,9.70
2019-03-05T00:27:21.790Z,9.70
2019-03-05T00:29:58.801Z,9.70
2019-03-05T00:32:27.270Z,9.70
2019-03-05T00:35:19.784Z,9.70
2019-03-05T00:38:06.528Z,9.70
2019-03-05T00:40:46.948Z,9.70
2019-03-05T00:43:24.455Z,9.60
2019-03-05T00:46:04.691Z,9.60
2019-03-05T00:48:42.195Z,9.60
2019-03-05T00:51:25.231Z,9.60
2019-03-05T00:54:14.115Z,9.50
2019-03-05T00:56:57.583Z,9.50
2019-03-05T00:59:49.869Z,9.50
2019-03-05T01:02:39.542Z,9.50
2019-03-05T01:05:27.459Z,9.60
2019-03-05T01:07:56.590Z,9.60
2019-03-05T01:10:25.556Z,9.60
2019-03-05T01:12:54.075Z,9.60
2019-03-05T01:15:22.683Z,9.60
2019-03-05T01:17:51.404Z,9.50
2019-03-05T01:20:19.999Z,9.60
2019-03-05T01:22:48.535Z,9.60
2019-03-05T01:25:35.600Z,9.70
2019-03-05T01:28:04.526Z,9.70
2019-03-05T01:30:48.910Z,9.70
2019-03-05T01:33:18.656Z,9.70
2019-03-05T01:35:54.946Z,9.70
2019-03-05T01:38:23.402Z,9.70
2019-03-05T01:40:53.591Z,9.60
2019-03-05T01:43:22.074Z,9.50
2019-03-05T01:45:50.507Z,9.50
2019-03-05T01:48:18.955Z,9.40
2019-03-05T01:50:47.404Z,9.50
2019-03-05T01:53:15.866Z,9.50
2019-03-05T01:55:44.297Z,9.50
2019-03-05T01:58:12.775Z,9.50
2019-03-05T02:00:41.276Z,9.50
2019-03-05T02:03:09.717Z,9.50
2019-03-05T02:05:38.536Z,9.50
2019-03-05T02:08:07.109Z,9.40
2019-03-05T02:10:35.543Z,9.40
2019-03-05T02:13:05.129Z,9.40
2019-03-05T02:15:33.581Z,9.40
2019-03-05T02:18:02.032Z,9.40
2019-03-05T02:20:30.454Z,9.40
2019-03-05T02:23:11.228Z,9.50
2019-03-05T02:25:51.381Z,9.40
2019-03-05T02:28:34.261Z,9.50
2019-03-05T02:31:11.650Z,9.50
2019-03-05T02:33:48.867Z,9.40
2019-03-05T02:36:28.998Z,9.30
2019-03-05T02:39:23.208Z,9.30
2019-03-05T02:42:03.626Z,9.30
2019-03-05T02:44:44.241Z,9.30
2019-03-05T02:47:21.257Z,9.30
2019-03-05T02:50:01.955Z,9.30
2019-03-05T02:52:39.069Z,9.20
2019-03-05T02:55:44.108Z,9.20
2019-03-05T02:58:11.514Z,9.20
2019-03-05T03:00:54.010Z,9.20
2019-03-05T03:03:27.158Z,9.20
2019-03-05T03:05:57.329Z,9.20
2019-03-05T03:08:25.850Z,9.20
2019-03-05T03:10:54.292Z,9.20
2019-03-05T03:13:22.792Z,9.10
2019-03-05T03:15:51.220Z,9.00
2019-03-05T03:18:19.654Z,8.90
2019-03-05T03:20:48.232Z,8.90
2019-03-05T03:23:16.654Z,8.80
2019-03-05T03:25:45.112Z,8.80
2019-03-05T03:28:13.615Z,8.80
2019-03-05T03:30:42.061Z,8.80
2019-03-05T03:33:10.823Z,8.80
2019-03-05T03:35:39.318Z,8.80
2019-03-05T03:38:07.747Z,8.70
2019-03-05T03:40:36.339Z,8.70
2019-03-05T03:43:05.177Z,8.80
2019-03-05T03:45:33.695Z,8.70
2019-03-05T03:48:02.250Z,8.70
2019-03-05T03:50:31.038Z,8.80
2019-03-05T03:52:59.457Z,8.80
2019-03-05T03:55:28.053Z,8.80
2019-03-05T03:57:56.689Z,8.80
2019-03-05T04:00:25.298Z,8.80
2019-03-05T04:02:53.783Z,8.80
2019-03-05T04:05:22.348Z,8.80
2019-03-05T04:07:50.850Z,8.80
2019-03-05T04:10:19.375Z,8.80
2019-03-05T04:12:47.921Z,8.90
2019-03-05T04:15:18.255Z,8.90
2019-03-05T04:17:46.701Z,9.00
2019-03-05T04:20:17.931Z,9.10
2019-03-05T04:22:46.363Z,9.10
2019-03-05T04:25:14.941Z,9.10
2019-03-05T04:27:43.394Z,9.10
2019-03-05T04:30:14.020Z,9.10
2019-03-05T04:32:42.522Z,9.00
2019-03-05T04:35:12.535Z,9.00
2019-03-05T04:37:40.969Z,9.00
2019-03-05T04:40:11.331Z,8.90
2019-03-05T04:42:39.841Z,8.90
2019-03-05T04:45:30.574Z,8.90
2019-03-05T04:47:59.012Z,8.90
2019-03-05T04:50:34.951Z,8.90
2019-03-05T04:53:03.432Z,8.80
2019-03-05T04:55:31.895Z,8.80
2019-03-05T04:58:01.102Z,8.90
2019-03-05T05:00:29.626Z,8.80
2019-03-05T05:02:58.502Z,8.80
2019-03-05T05:05:27.059Z,8.80
2019-03-05T05:07:55.742Z,8.80
2019-03-05T05:10:24.195Z,8.90
2019-03-05T05:12:52.666Z,8.80
2019-03-05T05:15:24.194Z,8.90
2019-03-05T05:17:52.654Z,8.90
2019-03-05T05:20:21.101Z,8.90
2019-03-05T05:22:49.626Z,8.90
2019-03-05T05:25:18.058Z,9.00
2019-03-05T05:27:46.598Z,9.00
2019-03-05T05:30:29.865Z,9.20
2019-03-05T05:32:58.307Z,9.20
2019-03-05T05:35:26.799Z,9.20
2019-03-05T05:37:55.313Z,9.20
2019-03-05T05:40:26.871Z,9.20
2019-03-05T05:42:56.071Z,9.30
2019-03-05T05:45:33.539Z,9.20
2019-03-05T05:48:02.060Z,9.20
2019-03-05T05:50:30.544Z,9.20
2019-03-05T05:52:59.031Z,9.20
2019-03-05T05:55:27.470Z,9.20
2019-03-05T05:57:56.037Z,9.20
2019-03-05T06:00:24.600Z,9.20
2019-03-05T06:02:53.120Z,9.30
2019-03-05T06:05:21.538Z,9.30
2019-03-05T06:07:50.004Z,9.30
2019-03-05T06:10:18.418Z,9.40
2019-03-05T06:12:46.870Z,9.30
2019-03-05T06:15:15.963Z,9.30
2019-03-05T06:17:44.490Z,9.40
2019-03-05T06:20:17.027Z,9.40
2019-03-05T06:22:45.492Z,9.40
2019-03-05T06:25:15.527Z,9.40
2019-03-05T06:27:44.059Z,9.40
2019-03-05T06:30:23.386Z,9.40
2019-03-05T06:32:51.901Z,9.40
2019-03-05T06:35:20.327Z,9.40
2019-03-05T06:37:48.847Z,9.40
2019-03-05T06:40:23.059Z,9.50
2019-03-05T06:42:51.632Z,9.60
2019-03-05T06:45:23.584Z,9.60
2019-03-05T06:47:55.251Z,9.60
2019-03-05T06:50:26.588Z,9.40
2019-03-05T06:52:56.066Z,9.40
2019-03-05T06:55:24.696Z,9.50
2019-03-05T06:57:53.301Z,9.50
2019-03-05T07:00:34.412Z,9.60
2019-03-05T07:03:04.819Z,9.60
2019-03-05T07:06:09.878Z,9.60
2019-03-05T07:08:59.444Z,9.60
2019-03-05T07:11:52.448Z,9.50
2019-03-05T07:14:24.302Z,9.60
2019-03-05T07:16:59.321Z,9.60
2019-03-05T07:19:30.682Z,9.60
2019-03-05T07:22:20.579Z,9.50
2019-03-05T07:24:49.266Z,9.60
2019-03-05T07:27:26.319Z,9.60
2019-03-05T07:29:57.559Z,9.60
2019-03-05T07:32:26.014Z,9.60
2019-03-05T07:34:54.518Z,9.60
2019-03-05T07:37:22.964Z,9.70
2019-03-05T07:39:51.390Z,9.70
2019-03-05T07:42:19.862Z,9.70
2019-03-05T07:44:48.370Z,9.70
2019-03-05T07:47:16.809Z,9.60
2019-03-05T07:49:45.330Z,9.50
2019-03-05T07:52:13.796Z,9.70
2019-03-05T07:54:42.839Z,9.60
2019-03-05T07:57:11.425Z,9.60
2019-03-05T07:59:39.856Z,9.70
2019-03-05T08:02:08.358Z,9.70
2019-03-05T08:04:36.809Z,9.70
2019-03-05T08:07:05.234Z,9.70
2019-03-05T08:09:36.111Z,9.70
2019-03-05T08:12:19.521Z,9.90
2019-03-05T08:15:04.487Z,10.00
2019-03-05T08:17:34.931Z,10.00
2019-03-05T08:20:04.815Z,10.10
2019-03-05T08:22:33.312Z,10.20
2019-03-05T08:25:01.774Z,10.20
2019-03-05T08:27:30.220Z,10.20
2019-03-05T08:29:58.672Z,10.20
2019-03-05T08:32:27.107Z,10.10
2019-03-05T08:34:56.410Z,10.20
2019-03-05T08:37:24.842Z,10.30
2019-03-05T08:39:53.319Z,10.30
2019-03-05T08:42:21.747Z,10.30
2019-03-05T08:44:50.924Z,10.30
2019-03-05T08:47:19.623Z,10.30
2019-03-05T08:49:48.088Z,10.30
2019-03-05T08:52:16.570Z,10.30
2019-03-05T08:54:45.554Z,10.20
2019-03-05T08:57:14.430Z,10.20
2019-03-05T08:59:42.889Z,10.20
2019-03-05T09:02:11.524Z,10.20
2019-03-05T09:04:40.010Z,10.20
2019-03-05T09:07:09.439Z,10.30
2019-03-05T09:09:37.890Z,10.30
2019-03-05T09:12:08.034Z,10.20
2019-03-05T09:14:36.760Z,10.10
2019-03-05T09:17:05.730Z,10.10
2019-03-05T09:19:34.207Z,10.20
2019-03-05T09:22:02.703Z,10.30
2019-03-05T09:24:31.169Z,10.30
2019-03-05T09:26:59.606Z,10.20
2019-03-05T09:29:28.058Z,10.30
2019-03-05T09:31:56.504Z,10.30
2019-03-05T09:34:24.943Z,10.20
2019-03-05T09:36:53.395Z,10.20
2019-03-05T09:39:21.845Z,10.20
2019-03-05T09:41:50.299Z,10.20
2019-03-05T09:44:18.809Z,10.30
2019-03-05T09:46:47.333Z,10.20
2019-03-05T09:49:15.820Z,10.20
2019-03-05T09:51:44.279Z,10.10
2019-03-05T09:54:12.710Z,10.20
2019-03-05T09:56:41.158Z,10.10
2019-03-05T09:59:09.591Z,10.10
2019-03-05T10:01:38.557Z,10.00
2019-03-05T10:04:07.067Z,10.00
2019-03-05T10:06:35.531Z,10.00
2019-03-05T10:09:05.797Z,9.90
2019-03-05T10:11:34.416Z,9.80
2019-03-05T10:14:02.856Z,9.80
2019-03-05T10:16:31.305Z,9.80
2019-03-05T10:18:59.744Z,9.70
2019-03-05T10:21:28.336Z,9.50
2019-03-05T10:23:56.812Z,9.50
2019-03-05T10:26:25.337Z,9.30
2019-03-05T10:28:53.839Z,9.30
2019-03-05T10:31:22.410Z,9.30
2019-03-05T10:33:51.592Z,9.40
2019-03-05T10:36:20.034Z,9.30
2019-03-05T10:38:56.818Z,9.30
2019-03-05T10:41:18.859Z,9.30
2019-03-05T10:43:47.363Z,9.40
2019-03-05T10:46:15.859Z,9.50
2019-03-05T10:48:44.334Z,9.40
2019-03-05T10:51:12.902Z,9.40
2019-03-05T10:53:43.136Z,9.40
2019-03-05T10:56:11.665Z,9.40
2019-03-05T10:58:40.161Z,9.30
2019-03-05T11:01:09.669Z,9.30
2019-03-05T11:03:38.363Z,9.30
2019-03-05T11:06:07.942Z,9.40
2019-03-05T11:08:36.391Z,9.40
2019-03-05T11:11:12.954Z,9.40
2019-03-05T11:13:35.821Z,9.50
2019-03-05T11:16:06.322Z,9.50
2019-03-05T11:18:35.610Z,9.50
2019-03-05T11:21:05.323Z,9.50
2019-03-05T11:23:33.908Z,9.50
2019-03-05T11:26:02.475Z,9.40
2019-03-05T11:28:30.960Z,9.40
2019-03-05T11:30:59.467Z,9.30
2019-03-05T11:33:27.948Z,9.30
2019-03-05T11:35:56.533Z,9.30
2019-03-05T11:38:24.992Z,9.20
2019-03-05T11:40:53.578Z,9.20
2019-03-05T11:43:22.104Z,9.20
2019-03-05T11:45:50.519Z,9.20
2019-03-05T11:48:18.976Z,9.20
2019-03-05T11:50:47.499Z,9.30
2019-03-05T11:53:19.575Z,9.30
2019-03-05T11:55:48.051Z,9.40
2019-03-05T11:58:16.476Z,9.30
2019-03-05T12:00:58.939Z,9.30
2019-03-05T12:03:27.522Z,9.30
2019-03-05T12:05:55.951Z,9.20
2019-03-05T12:08:24.387Z,9.10
2019-03-05T12:10:52.835Z,9.10
2019-03-05T12:13:21.487Z,9.00
2019-03-05T12:15:49.971Z,9.00
2019-03-05T12:18:18.482Z,8.90
2019-03-05T12:20:47.082Z,8.90
2019-03-05T12:23:15.735Z,8.80
2019-03-05T12:25:44.308Z,8.80
2019-03-05T12:28:12.878Z,8.90
2019-03-05T12:30:41.578Z,8.90
2019-03-05T12:33:10.239Z,9.00
2019-03-05T12:35:38.759Z,9.00
2019-03-05T12:38:07.416Z,9.10
2019-03-05T12:40:35.933Z,9.10
2019-03-05T12:43:04.440Z,9.20
2019-03-05T12:45:32.911Z,9.20
2019-03-05T12:48:01.488Z,9.30
2019-03-05T12:50:37.895Z,9.40
2019-03-05T12:53:06.867Z,9.40
2019-03-05T12:55:35.456Z,9.50
2019-03-05T12:58:04.117Z,9.50
2019-03-05T13:00:36.532Z,9.60
2019-03-05T13:03:05.335Z,9.70
2019-03-05T13:05:33.853Z,9.80
2019-03-05T13:08:02.357Z,9.90
2019-03-05T13:10:37.425Z,9.90
2019-03-05T13:13:05.715Z,10.00
2019-03-05T13:15:37.582Z,10.00
2019-03-05T13:18:06.081Z,10.10
2019-03-05T13:20:34.617Z,10.20
2019-03-05T13:23:08.707Z,10.30
2019-03-05T13:25:34.214Z,10.30
2019-03-05T13:28:04.200Z,10.20
2019-03-05T13:30:33.847Z,10.10
2019-03-05T13:33:02.695Z,10.00
2019-03-05T13:35:32.243Z,9.90
2019-03-05T13:38:09.794Z,9.80
2019-03-05T13:40:40.342Z,9.70
2019-03-05T13:43:08.743Z,9.70
2019-03-05T13:45:37.171Z,9.80
2019-03-05T13:48:23.595Z,9.80
2019-03-05T13:51:29.039Z,9.90
2019-03-05T13:54:09.310Z,10.00
2019-03-05T13:57:04.742Z,10.10
2019-03-05T13:59:39.157Z,10.30
2019-03-05T14:02:08.838Z,10.40
2019-03-05T14:04:49.100Z,10.50
2019-03-05T14:07:52.937Z,10.60
2019-03-05T14:10:21.468Z,10.70
2019-03-05T14:12:49.923Z,10.80
2019-03-05T14:15:19.499Z,10.90
2019-03-05T14:17:48.107Z,11.00
2019-03-05T14:20:17.273Z,11.20
2019-03-05T14:22:45.752Z,11.40
2019-03-05T14:25:15.851Z,11.40
2019-03-05T14:27:44.434Z,11.50
2019-03-05T14:30:16.384Z,11.40
2019-03-05T14:32:44.927Z,11.40
2019-03-05T14:35:14.782Z,11.30
2019-03-05T14:37:43.408Z,11.40
2019-03-05T14:40:24.102Z,11.50
2019-03-05T14:42:45.387Z,11.80
2019-03-05T14:45:19.301Z,12.10
2019-03-05T14:47:48.051Z,12.30
2019-03-05T14:50:16.921Z,12.50
2019-03-05T14:52:45.471Z,12.70
2019-03-05T14:55:14.499Z,12.70
2019-03-05T14:57:43.014Z,12.60
2019-03-05T15:00:17.945Z,12.60
2019-03-05T15:02:46.632Z,12.70
2019-03-05T15:05:15.205Z,12.70
2019-03-05T15:07:43.890Z,12.90
2019-03-05T15:10:12.338Z,13.00
2019-03-05T15:12:40.792Z,13.20
2019-03-05T15:15:24.168Z,13.20
2019-03-05T15:17:52.785Z,13.20
2019-03-05T15:20:21.547Z,13.00
2019-03-05T15:22:50.178Z,12.90
2019-03-05T15:25:18.676Z,12.60
2019-03-05T15:27:47.318Z,12.40
2019-03-05T15:30:21.319Z,12.30
2019-03-05T15:32:49.956Z,12.20
2019-03-05T15:35:18.480Z,12.10
2019-03-05T15:37:47.062Z,11.90
2019-03-05T15:40:17.243Z,11.80
2019-03-05T15:42:45.864Z,11.60
2019-03-05T15:45:22.833Z,11.50
2019-03-05T15:47:51.363Z,11.40
2019-03-05T15:50:25.265Z,11.30
2019-03-05T15:52:53.759Z,11.30
2019-03-05T15:55:22.302Z,11.30
2019-03-05T15:57:50.823Z,11.30
2019-03-05T16:00:28.195Z,11.30
2019-03-05T16:02:56.822Z,11.30
2019-03-05T16:05:26.245Z,11.20
2019-03-05T16:07:54.999Z,11.20
2019-03-05T16:10:23.820Z,11.20
2019-03-05T16:12:52.321Z,11.20
2019-03-05T16:15:20.920Z,11.40
2019-03-05T16:17:49.424Z,11.60
2019-03-05T16:20:18.968Z,11.70
2019-03-05T16:22:51.185Z,11.90
2019-03-05T16:25:22.362Z,12.10
2019-03-05T16:27:50.979Z,12.30
2019-03-05T16:30:47.176Z,12.40
2019-03-05T16:33:36.825Z,12.50
2019-03-05T16:36:25.372Z,12.50
2019-03-05T16:38:56.040Z,12.40
2019-03-05T16:41:26.394Z,12.30
2019-03-05T16:43:59.506Z,12.30
2019-03-05T16:46:45.702Z,12.10
2019-03-05T16:49:33.830Z,12.00
2019-03-05T16:52:09.577Z,11.80
2019-03-05T16:54:45.368Z,11.70
2019-03-05T16:57:21.311Z,11.70
2019-03-05T16:59:53.817Z,11.60
2019-03-05T17:02:32.808Z,11.40
2019-03-05T17:05:22.287Z,11.30
2019-03-05T17:07:52.759Z,11.20
2019-03-05T17:10:38.172Z,11.00
2019-03-05T17:13:06.958Z,11.00
2019-03-05T17:15:35.604Z,10.90
2019-03-05T17:18:04.471Z,10.90
2019-03-05T17:20:32.899Z,10.80
2019-03-05T17:23:01.780Z,10.80
2019-03-05T17:25:30.230Z,10.70
2019-03-05T17:27:58.782Z,10.70
2019-03-05T17:30:27.283Z,10.60
2019-03-05T17:32:56.002Z,10.60
2019-03-05T17:35:24.442Z,10.50
2019-03-05T17:37:52.909Z,10.50
2019-03-05T17:40:21.421Z,10.50
2019-03-05T17:42:50.284Z,10.50
2019-03-05T17:45:21.107Z,10.40
2019-03-05T17:47:49.612Z,10.50
2019-03-05T17:50:18.157Z,10.40
2019-03-05T17:52:46.658Z,10.50
2019-03-05T17:55:24.234Z,10.40
2019-03-05T17:57:48.431Z,10.40
2019-03-05T18:00:30.021Z,10.40
2019-03-05T18:02:58.527Z,10.40
2019-03-05T18:05:27.151Z,10.30
2019-03-05T18:07:55.799Z,10.30
2019-03-05T18:10:24.687Z,10.30
2019-03-05T18:12:53.314Z,10.20
2019-03-05T18:15:21.962Z,10.20
2019-03-05T18:17:50.536Z,10.20
2019-03-05T18:20:22.964Z,10.10
2019-03-05T18:22:51.397Z,10.10
2019-03-05T18:25:20.185Z,10.00
2019-03-05T18:27:48.768Z,10.00
2019-03-05T18:30:28.086Z,10.00
2019-03-05T18:32:56.966Z,9.90
2019-03-05T18:35:25.519Z,9.80
2019-03-05T18:37:54.406Z,9.70
2019-03-05T18:40:24.194Z,9.70
2019-03-05T18:42:52.965Z,9.70
2019-03-05T18:45:28.006Z,9.70
2019-03-05T18:47:56.690Z,9.50
2019-03-05T18:50:25.223Z,9.50
2019-03-05T18:52:55.935Z,9.50
2019-03-05T18:55:25.093Z,9.60
2019-03-05T18:57:53.853Z,9.60
2019-03-05T19:00:26.486Z,9.60
2019-03-05T19:03:09.847Z,9.60
2019-03-05T19:05:38.575Z,9.60
2019-03-05T19:08:07.072Z,9.60
2019-03-05T19:10:35.523Z,9.60
2019-03-05T19:13:04.414Z,9.60
2019-03-05T19:15:33.187Z,9.60
2019-03-05T19:18:01.883Z,9.60
2019-03-05T19:20:31.374Z,9.60
2019-03-05T19:23:00.123Z,9.50
2019-03-05T19:25:30.098Z,9.50
2019-03-05T19:27:58.699Z,9.40
2019-03-05T19:30:35.387Z,9.40
2019-03-05T19:33:03.995Z,9.40
2019-03-05T19:35:32.440Z,9.40
2019-03-05T19:38:00.970Z,9.40
2019-03-05T19:40:34.921Z,9.50
2019-03-05T19:43:03.750Z,9.50
2019-03-05T19:45:32.251Z,9.50
2019-03-05T19:48:00.718Z,9.50
2019-03-05T19:50:29.382Z,9.50
2019-03-05T19:52:58.304Z,9.40
2019-03-05T19:55:28.070Z,9.40
2019-03-05T19:58:10.466Z,9.40
2019-03-05T20:00:46.086Z,9.20
2019-03-05T20:03:14.583Z,9.10
2019-03-05T20:05:43.091Z,9.10
2019-03-05T20:08:11.614Z,9.10
2019-03-05T20:10:40.208Z,9.10
2019-03-05T20:13:08.831Z,9.10
2019-03-05T20:15:37.577Z,9.20
2019-03-05T20:18:07.386Z,9.20
2019-03-05T20:20:36.379Z,9.30
2019-03-05T20:23:05.586Z,9.30
2019-03-05T20:25:34.128Z,9.20
2019-03-05T20:28:02.632Z,9.20
2019-03-05T20:30:31.180Z,9.20
2019-03-05T20:32:59.716Z,9.20
2019-03-05T20:35:28.248Z,9.20
2019-03-05T20:37:56.820Z,9.30
2019-03-05T20:40:29.234Z,9.40
2019-03-05T20:42:57.886Z,9.40
2019-03-05T20:45:35.454Z,9.40
2019-03-05T20:48:04.485Z,9.40
2019-03-05T20:50:33.319Z,9.40
2019-03-05T20:53:02.011Z,9.40
2019-03-05T20:55:30.547Z,9.40
2019-03-05T20:57:59.146Z,9.40
2019-03-05T21:00:35.649Z,9.50
2019-03-05T21:03:08.475Z,9.60
2019-03-05T21:05:41.418Z,9.70
2019-03-05T21:08:10.066Z,9.70
2019-03-05T21:10:38.591Z,9.60
2019-03-05T21:13:07.755Z,9.60
2019-03-05T21:15:36.947Z,9.60
2019-03-05T21:18:08.113Z,9.60
2019-03-05T21:20:38.984Z,9.70
2019-03-05T21:23:07.171Z,9.70
2019-03-05T21:25:35.779Z,9.70
2019-03-05T21:28:04.423Z,9.50
2019-03-05T21:30:32.954Z,9.50
2019-03-05T21:33:01.865Z,9.50
2019-03-05T21:35:30.359Z,9.50
2019-03-05T21:37:58.909Z,9.60
2019-03-05T21:40:31.902Z,9.60
2019-03-05T21:43:00.372Z,9.60
2019-03-05T21:45:31.719Z,9.60
2019-03-05T21:48:01.093Z,9.70
2019-03-05T21:50:29.517Z,9.70
2019-03-05T21:52:57.986Z,9.70
2019-03-05T21:55:26.623Z,9.70
2019-03-05T21:57:55.083Z,9.80
2019-03-05T22:00:31.594Z,9.80
2019-03-05T22:03:01.386Z,9.90
2019-03-05T22:05:30.526Z,10.00
2019-03-05T22:07:59.221Z,10.00
2019-03-05T22:10:27.854Z,10.00
2019-03-05T22:12:56.426Z,10.10
2019-03-05T22:15:28.989Z,9.90
2019-03-05T22:17:57.597Z,9.90
2019-03-05T22:20:26.090Z,9.90
2019-03-05T22:22:54.971Z,9.90
2019-03-05T22:25:24.265Z,9.90
2019-03-05T22:27:52.927Z,9.90
2019-03-05T22:30:40.351Z,9.90
2019-03-05T22:33:09.338Z,9.90
2019-03-05T22:35:37.830Z,10.00
2019-03-05T22:38:06.623Z,9.80
2019-03-05T22:40:35.127Z,9.80
2019-03-05T22:43:03.712Z,9.80
2019-03-05T22:45:34.137Z,9.70
2019-03-05T22:48:02.822Z,9.70
2019-03-05T22:50:31.312Z,9.80
2019-03-05T22:52:59.842Z,9.80
2019-03-05T22:55:28.571Z,9.90
2019-03-05T22:57:57.399Z,9.90
2019-03-05T23:00:56.178Z,10.00
2019-03-05T23:03:27.700Z,10.00
2019-03-05T23:05:56.534Z,10.00
2019-03-05T23:08:25.097Z,9.90
2019-03-05T23:10:53.667Z,9.90
2019-03-05T23:13:22.264Z,10.00
2019-03-05T23:15:51.562Z,10.00
2019-03-05T23:18:22.314Z,10.00
2019-03-05T23:20:50.823Z,10.00
2019-03-05T23:23:21.043Z,10.00
2019-03-05T23:25:49.599Z,10.00
2019-03-05T23:28:18.125Z,9.90
2019-03-05T23:30:46.651Z,9.90
2019-03-05T23:33:15.640Z,9.90
2019-03-05T23:35:44.222Z,10.00
2019-03-05T23:38:12.753Z,10.20
2019-03-05T23:40:41.263Z,10.20
2019-03-05T23:43:09.742Z,10.20
2019-03-05T23:45:38.189Z,10.20
2019-03-05T23:48:06.926Z,10.30
2019-03-05T23:50:35.468Z,10.20
2019-03-05T23:53:03.963Z,10.20
2019-03-05T23:55:32.449Z,10.20
2019-03-05T23:58:01.072Z,10.30
